Time;durP1;ratioP1;P1;durP2;ratioP2;P2;SDS_P1;SDS_P2;PMS_P1;PMS_P2;Temp;Humidity;BMP_temperature;BMP_pressure;BME280_temperature;BME280_humidity;BME280_pressure;Samples;Min_cycle;Max_cycle;Signal;HPM_P1;HPM_P2
2024/04/11 00:00:01;;;;;;;3.37;1.87;;;11.00;87.10;13.80;98013.00;;;;5419451;26;20779;-69
2024/04/11 00:02:55;;;;;;;4.67;2.37;;;11.00;87.60;13.80;98018.00;;;;5408907;26;20285;-69
2024/04/11 00:05:43;;;;;;;4.40;2.27;;;11.00;87.60;13.80;98012.00;;;;5409557;26;20238;-69
2024/04/11 00:08:33;;;;;;;9.10;4.33;;;11.00;87.50;13.60;98007.00;;;;5407556;26;20279;-69
2024/04/11 00:11:22;;;;;;;5.87;2.67;;;11.00;87.60;13.60;98008.00;;;;5414467;26;20280;-69
2024/04/11 00:14:12;;;;;;;42.23;33.77;;;10.90;87.70;13.80;98006.00;;;;5403613;26;20299;-69
2024/04/11 00:17:00;;;;;;;9.10;4.17;;;11.00;87.60;13.80;98014.00;;;;5408703;26;20912;-69
2024/04/11 00:19:54;;;;;;;3.80;1.97;;;11.00;87.50;13.70;98011.00;;;;5409604;26;20297;-70
2024/04/11 00:22:42;;;;;;;51.83;45.17;;;10.90;87.40;13.80;98012.00;;;;5410189;26;20234;-69
2024/04/11 00:25:33;;;;;;;7.60;3.67;;;11.00;87.70;13.50;98006.00;;;;5408303;26;20301;-68
2024/04/11 00:28:22;;;;;;;20.00;16.20;;;10.90;87.40;13.70;98014.00;;;;5416964;26;20233;-69
2024/04/11 00:31:14;;;;;;;28.00;23.53;;;10.90;88.10;13.60;98013.00;;;;5412747;26;20301;-68
2024/04/11 00:34:13;;;;;;;6.37;3.13;;;10.90;88.80;13.40;98013.00;;;;5407271;26;20273;-69
2024/04/11 00:37:08;;;;;;;8.80;4.13;;;10.80;88.70;13.40;98018.00;;;;5408821;26;20230;-69
2024/04/11 00:39:59;;;;;;;2.47;1.60;;;10.70;89.40;13.30;98017.00;;;;5400565;26;20238;-69
2024/04/11 00:42:51;;;;;;;2.47;1.63;;;10.70;89.40;13.30;98024.00;;;;5408898;26;20285;-68
2024/04/11 00:45:45;;;;;;;4.03;2.73;;;10.60;89.60;13.30;98003.00;;;;5408035;26;20230;-69
2024/04/11 00:48:36;;;;;;;3.53;2.50;;;10.60;89.20;13.40;98014.00;;;;5408183;26;20226;-69
2024/04/11 00:51:25;;;;;;;3.17;2.13;;;10.50;89.20;13.40;98011.00;;;;5412064;26;20238;-69
2024/04/11 00:54:20;;;;;;;3.10;2.10;;;10.60;89.40;13.40;98009.00;;;;5410452;26;20275;-69
2024/04/11 00:57:09;;;;;;;4.10;2.83;;;10.60;89.40;13.50;98006.00;;;;5402771;26;20282;-69
2024/04/11 01:00:00;;;;;;;2.37;1.73;;;10.60;89.40;13.30;98021.00;;;;5414573;26;21106;-69
2024/04/11 01:02:49;;;;;;;2.60;1.77;;;10.60;90.00;13.30;98031.00;;;;5405764;26;20764;-69
2024/04/11 01:05:40;;;;;;;2.80;1.83;;;10.60;90.00;13.20;98028.00;;;;5408395;26;20722;-69
2024/04/11 01:08:28;;;;;;;5.07;3.10;;;10.50;90.40;12.90;98030.00;;;;5405796;26;20277;-69
2024/04/11 01:11:22;;;;;;;2.30;1.63;;;10.40;90.30;12.60;98022.00;;;;5410870;26;20306;-69
2024/04/11 01:14:10;;;;;;;3.00;2.20;;;10.30;90.50;11.90;98012.00;;;;5413105;26;20293;-69
2024/04/11 01:17:00;;;;;;;4.37;2.57;;;10.10;90.70;11.70;98009.00;;;;5410129;26;20237;-69
2024/04/11 01:19:48;;;;;;;2.27;1.57;;;9.90;91.10;11.90;98005.00;;;;5408907;26;20293;-69
2024/04/11 01:22:44;;;;;;;4.00;2.63;;;9.70;91.40;11.80;98006.00;;;;5424282;26;20638;-69
2024/04/11 01:25:32;;;;;;;4.27;2.83;;;9.60;91.60;11.10;97998.00;;;;5409745;26;20234;-69
2024/04/11 01:28:23;;;;;;;3.20;1.97;;;9.30;92.00;11.30;98002.00;;;;5408392;26;20233;-69
2024/04/11 01:31:12;;;;;;;2.67;1.90;;;9.20;92.40;11.30;98007.00;;;;5406386;26;20310;-69
2024/04/11 01:34:03;;;;;;;3.03;1.90;;;9.10;92.90;10.40;98014.00;;;;5409801;26;20280;-69
2024/04/11 01:36:51;;;;;;;2.77;1.80;;;8.80;93.20;10.10;98013.00;;;;5413926;26;20328;-69
2024/04/11 01:39:45;;;;;;;3.67;2.53;;;8.50;93.80;10.30;98000.00;;;;5409446;26;20234;-69
2024/04/11 01:42:34;;;;;;;4.63;2.90;;;8.40;94.30;10.40;98009.00;;;;5407294;26;20230;-69
2024/04/11 01:45:26;;;;;;;3.47;2.10;;;8.30;94.80;10.20;98004.00;;;;5412034;26;20294;-69
2024/04/11 01:48:14;;;;;;;3.40;2.03;;;8.20;95.00;10.50;98007.00;;;;5409355;26;20237;-69
2024/04/11 01:51:07;;;;;;;3.87;2.13;;;8.10;95.20;10.50;98007.00;;;;5399375;26;20245;-69
2024/04/11 01:53:55;;;;;;;3.83;2.07;;;8.10;95.60;10.40;98015.00;;;;5408156;26;20339;-69
2024/04/11 01:56:49;;;;;;;9.77;4.22;;;8.10;99.90;9.30;98008.00;;;;5406208;26;20756;-68
2024/04/11 01:59:37;;;;;;;7.23;3.33;;;7.90;96.20;9.80;98017.00;;;;5408542;26;20342;-69
2024/04/11 02:02:29;;;;;;;5.07;2.50;;;7.80;96.50;9.50;98025.00;;;;5409547;26;20230;-69
2024/04/11 02:05:20;;;;;;;3.80;1.90;;;;;9.90;98011.00;;;;5403618;26;20241;-69
2024/04/11 02:08:12;;;;;;;2.93;1.50;;;;;9.80;98016.00;;;;5401700;26;21031;-68
2024/04/11 02:11:00;;;;;;;2.33;1.30;;;;;9.50;98005.00;;;;5411874;26;20238;-68
2024/04/11 02:13:54;;;;;;;4.63;2.13;;;;;9.60;98004.00;;;;5409417;26;20280;-68
2024/04/11 02:16:42;;;;;;;7.97;3.50;;;;;9.30;98003.00;;;;5407362;26;20268;-69
2024/04/11 02:19:33;;;;;;;12.63;5.72;;;;;9.30;98011.00;;;;5403905;26;20372;-68
2024/04/11 02:22:21;;;;;;;5.70;2.30;;;;;9.70;98012.00;;;;5407710;26;20229;-68
2024/04/11 02:25:13;;;;;;;6.47;2.77;;;;;9.30;98012.00;;;;5414761;26;20276;-69
2024/04/11 02:28:03;;;;;;;4.20;1.87;;;;;9.60;98017.00;;;;5402594;26;20293;-69
2024/04/11 02:30:57;;;;;;;4.70;2.10;;;;;9.30;98017.00;;;;5402147;26;20293;-68
2024/04/11 02:33:46;;;;;;;4.73;2.20;;;;;8.30;98014.00;;;;5407821;26;21865;-68
2024/04/11 02:36:37;;;;;;;10.07;4.17;;;;;9.10;98010.00;;;;5410127;26;20238;-68
2024/04/11 02:39:25;;;;;;;6.50;2.90;;;;;9.70;98024.00;;;;5407653;26;20735;-68
2024/04/11 02:42:17;;;;;;;3.87;1.83;;;;;9.30;98024.00;;;;5412403;26;20367;-69
2024/04/11 02:45:07;;;;;;;4.90;2.30;;;;;8.90;98017.00;;;;5406299;26;20285;-69
2024/04/11 02:48:03;;;;;;;5.03;2.20;;;;;8.40;98011.00;;;;5402670;26;20298;-69
2024/04/11 02:50:54;;;;;;;3.80;1.90;;;;;8.60;98023.00;;;;5399599;26;20241;-69
2024/04/11 02:53:43;;;;;;;8.40;3.57;;;;;8.30;98017.00;;;;5409635;26;20233;-69
2024/04/11 02:56:34;;;;;;;16.83;13.63;;;;;8.10;98033.00;;;;5410442;26;20368;-68
2024/04/11 02:59:23;;;;;;;13.57;11.52;;;;;7.90;98025.00;;;;5403298;26;20373;-68
2024/04/11 03:02:14;;;;;;;5.33;2.30;;;;;8.60;98034.00;;;;5401521;26;20238;-68
2024/04/11 03:05:06;;;;;;;38.60;30.90;;;;;8.70;98037.00;;;;5406772;26;20305;-68
2024/04/11 03:07:57;;;;;;;36.17;32.27;;;;;8.60;98035.00;;;;5407940;26;20229;-68
2024/04/11 03:10:45;;;;;;;27.43;22.00;;;;;8.10;98038.00;;;;5413657;26;20288;-69
2024/04/11 03:13:36;;;;;;;69.47;54.53;;;;;8.10;98044.00;;;;5408901;26;20230;-68
2024/04/11 03:16:26;;;;;;;27.73;24.80;;;;;8.60;98044.00;;;;5420602;26;20278;-68
2024/04/11 03:19:17;;;;;;;9.43;4.20;;;;;8.30;98044.00;;;;5407517;26;20719;-68
2024/04/11 03:22:08;;;;;;;10.13;5.30;;;;;8.20;98041.00;;;;5413255;26;20230;-68
2024/04/11 03:24:59;;;;;;;28.23;25.60;;;;;8.40;98047.00;;;;5399603;26;20289;-68
2024/04/11 03:27:47;;;;;;;8.13;3.47;;;;;8.10;98046.00;;;;5412620;26;20230;-67
2024/04/11 03:30:38;;;;;;;17.40;7.80;;;;;8.40;98043.00;;;;5410065;26;20633;-68
2024/04/11 03:33:27;;;;;;;64.70;52.87;;;;;8.30;98049.00;;;;5410583;26;20230;-68
2024/04/11 03:36:19;;;;;;;52.40;38.20;;;;;7.60;98051.00;;;;5415147;26;20238;-68
2024/04/11 03:39:12;;;;;;;9.90;3.80;;;;;8.20;98056.00;;;;5410770;26;20332;-68
2024/04/11 03:42:10;;;;;;;6.90;2.83;;;;;8.10;98060.00;;;;5416244;26;20229;-68
2024/04/11 03:45:10;;;;;;;5.47;2.40;;;;;8.20;98062.00;;;;5409494;26;20298;-68
2024/04/11 03:48:01;;;;;;;3.97;1.87;;;;;7.80;98057.00;;;;5409384;26;20761;-68
2024/04/11 03:50:50;;;;;;;6.00;2.50;;;;;7.50;98060.00;;;;5408829;26;20250;-68
2024/04/11 03:53:41;;;;;;;10.47;4.10;;;;;7.80;98051.00;;;;5410113;26;20226;-67
2024/04/11 03:56:35;;;;;;;7.80;3.10;;;;;8.20;98057.00;;;;5407247;26;20277;-68
2024/04/11 03:59:25;;;;;;;5.70;2.37;;;;;8.10;98061.00;;;;5410327;26;20662;-67
2024/04/11 04:02:16;;;;;;;5.90;2.50;;;;;7.50;98061.00;;;;5431077;20;20319;-85
2024/04/11 04:05:07;;;;;;;5.20;2.30;;;;;7.80;98050.00;;;;5419068;26;20309;-85
2024/04/11 04:07:58;;;;;;;5.03;2.30;;;;;7.70;98057.00;;;;5431917;26;20237;-85
2024/04/11 04:10:46;;;;;;;11.33;4.43;;;;;7.50;98067.00;;;;5418173;26;20298;-84
2024/04/11 04:13:40;;;;;;;11.23;4.47;;;;;7.90;98060.00;;;;5403008;26;20327;-85
2024/04/11 04:16:32;;;;;;;12.93;4.80;;;;;8.30;98069.00;;;;5397096;26;20241;-84
2024/04/11 04:19:22;;;;;;;7.80;2.87;;;;;7.60;98059.00;;;;5405074;26;20242;-84
2024/04/11 04:22:16;;;;;;;7.23;3.03;;;;;8.70;98068.00;;;;5404306;26;20309;-84
2024/04/11 04:25:08;;;;;;;6.53;2.63;;;;;7.90;98068.00;;;;5397813;26;20245;-84
2024/04/11 04:27:58;;;;;;;7.40;2.87;;;;;7.80;98075.00;;;;5383936;26;20285;-86
2024/04/11 04:30:49;;;;;;;10.23;3.83;;;;;8.00;98067.00;;;;5392843;26;20782;-84
2024/04/11 04:33:40;;;;;;;12.43;4.80;;;;;8.30;98082.00;;;;5398771;26;20282;-83
2024/04/11 04:36:33;;;;;;;6.87;2.63;;;;;8.10;98079.00;;;;5387293;26;20871;-84
2024/04/11 04:39:30;;;;;;;9.17;3.60;;;;;8.10;98076.00;;;;5387568;26;20343;-84
2024/04/11 04:42:23;;;;;;;9.97;3.73;;;;;8.50;98075.00;;;;5390429;26;20242;-84
2024/04/11 04:45:12;;;;;;;8.67;3.30;;;;;8.10;98076.00;;;;5388665;26;20282;-84
2024/04/11 04:48:11;;;;;;;6.97;2.97;;;;;8.30;98090.00;;;;5398029;26;20738;-85
2024/04/11 04:51:00;;;;;;;6.67;2.83;;;;;8.50;98081.00;;;;5391264;26;20738;-84
2024/04/11 04:53:52;;;;;;;8.93;3.33;;;;;8.70;98085.00;;;;5405646;26;20298;-84
2024/04/11 04:56:41;;;;;;;13.67;5.20;;;;;8.80;98071.00;;;;5407733;26;20305;-84
2024/04/11 04:59:32;;;;;;;9.73;3.67;;;;;8.40;98096.00;;;;5410653;26;20234;-84
2024/04/11 05:02:26;;;;;;;7.10;2.93;;;;;8.50;98089.00;;;;5392312;26;20238;-83
2024/04/11 05:05:18;;;;;;;5.33;2.33;;;;;8.80;98104.00;;;;5389640;26;20299;-84
2024/04/11 05:08:13;;;;;;;6.80;2.73;;;;;8.90;98090.00;;;;5403165;26;20257;-84
2024/04/11 05:11:10;;;;;;;7.00;2.93;;;;;9.20;98100.00;;;;5404444;26;20309;-84
2024/04/11 05:14:07;;;;;;;6.40;2.67;;;;;9.40;98105.00;;;;5396063;26;20855;-84
2024/04/11 05:16:56;;;;;;;4.63;1.93;;;;;9.20;98101.00;;;;5393489;26;20273;-84
2024/04/11 05:19:46;;;;;;;11.20;4.53;;;;;9.30;98098.00;;;;5392238;26;20227;-84
2024/04/11 05:22:37;;;;;;;10.23;4.20;;;;;9.50;98098.00;;;;5396810;26;20275;-84
2024/04/11 05:25:29;;;;;;;7.87;3.40;;;;;9.90;98112.00;;;;5410150;26;20290;-84
2024/04/11 05:28:17;;;;;;;6.27;2.67;;;;;9.40;98112.00;;;;5401115;26;20239;-85
2024/04/11 05:31:09;;;;;;;8.47;3.53;;;;;9.40;98116.00;;;;5406713;26;20286;-84
2024/04/11 05:34:06;;;;;;;6.90;2.87;;;;;10.10;98119.00;;;;5395214;26;20238;-85
2024/04/11 05:36:57;;;;;;;7.97;3.67;;;;;10.30;98125.00;;;;5396073;26;20654;-84
2024/04/11 05:39:48;;;;;;;12.23;5.00;;;;;10.40;98118.00;;;;5398038;26;20276;-84
2024/04/11 05:42:44;;;;;;;12.63;5.27;;;;;10.80;98130.00;;;;5391624;26;20672;-83
2024/04/11 05:45:35;;;;;;;14.53;5.77;;;;;11.00;98135.00;;;;5401628;26;20234;-84
2024/04/11 05:48:24;;;;;;;6.53;2.77;;;;;11.10;98133.00;;;;5402492;26;20229;-84
2024/04/11 05:51:15;;;;;;;9.13;4.00;;;;;11.10;98134.00;;;;5396570;26;20346;-84
2024/04/11 05:54:04;;;;;;;34.83;27.67;;;;;11.20;98142.00;;;;5392443;26;20239;-85
2024/04/11 05:56:58;;;;;;;9.07;3.67;;;;;11.70;98143.00;;;;5400388;26;20246;-84
2024/04/11 05:59:47;;;;;;;10.23;4.27;;;;;11.80;98158.00;;;;5407752;26;20630;-84
2024/04/11 06:02:38;;;;;;;27.57;10.60;;;;;12.30;98155.00;;;;5403344;26;20229;-84
2024/04/11 06:05:29;;;;;;;6.70;2.90;;;;;13.00;98149.00;;;;5402111;26;20728;-84
2024/04/11 06:08:21;;;;;;;7.67;3.37;;;;;13.20;98146.00;;;;5410460;26;20794;-85
2024/04/11 06:11:10;;;;;;;8.80;4.83;;;;;13.70;98143.00;;;;5410351;26;20233;-85
2024/04/11 06:14:05;;;;;;;12.43;8.67;;;;;13.90;98143.00;;;;5397935;26;20343;-85
2024/04/11 06:16:53;;;;;;;8.10;3.37;;;;;14.10;98146.00;;;;5401475;26;20302;-84
2024/04/11 06:19:45;;;;;;;9.80;4.23;;;;;14.30;98146.00;;;;5408909;26;20289;-86
2024/04/11 06:22:35;;;;;;;14.03;5.80;;;;;14.60;98150.00;;;;5415685;26;20234;-86
2024/04/11 06:25:26;;;;;;;7.17;3.27;;;;;14.70;98157.00;;;;5416560;26;20233;-85
2024/04/11 06:28:14;;;;;;;3.17;2.40;;;;;15.00;98164.00;;;;5401507;26;20229;-86
2024/04/11 06:31:09;;;;;;;7.40;3.23;;;;;15.20;98159.00;;;;5416479;26;20238;-86
2024/04/11 06:33:57;;;;;;;6.13;2.87;;;;;15.20;98169.00;;;;5416568;26;20313;-86
2024/04/11 06:36:49;;;;;;;11.33;4.70;;;;;15.30;98169.00;;;;5409325;26;20290;-87
2024/04/11 06:39:38;;;;;;;11.03;4.73;;;;;15.40;98167.00;;;;5404282;26;20254;-86
2024/04/11 06:42:29;;;;;;;8.20;3.57;;;;;15.30;98172.00;;;;5405957;26;20234;-85
2024/04/11 06:45:19;;;;;;;7.07;3.20;;;;;15.80;98190.00;;;;5410589;26;20288;-86
2024/04/11 06:48:13;;;;;;;8.57;4.00;;;;;15.70;98173.00;;;;5398093;26;20297;-86
2024/04/11 06:51:03;;;;;;;6.47;3.37;;;;;15.70;98180.00;;;;5414741;26;20302;-86
2024/04/11 06:53:54;;;;;;;67.43;62.20;;;;;15.70;98177.00;;;;5408357;26;20247;-86
2024/04/11 06:56:44;;;;;;;156.00;142.10;;;;;16.10;98189.00;;;;5383715;26;20658;-85
2024/04/11 06:59:35;;;;;;;60.83;55.70;;;;;16.00;98183.00;;;;5400383;26;20330;-86
2024/04/11 07:02:24;;;;;;;8.93;5.87;;;;;16.40;98185.00;;;;5399899;26;20242;-86
2024/04/11 07:05:20;;;;;;;110.43;100.33;;;;;15.60;98177.00;;;;5403265;26;20280;-86
2024/04/11 07:08:08;;;;;;;8.70;5.07;;;;;16.10;98180.00;;;;5385393;26;20274;-86
2024/04/11 07:11:15;;;;;;;33.03;31.37;;;;;16.40;98190.00;;;;5398480;26;20249;-86
2024/04/11 07:14:10;;;;;;;65.60;61.70;;;;;15.80;98187.00;;;;5392637;26;20293;-85
2024/04/11 07:17:01;;;;;;;116.50;108.17;;;;;16.70;98199.00;;;;5394585;26;20237;-85
2024/04/11 07:19:50;;;;;;;123.53;113.60;;;;;17.00;98185.00;;;;5392380;26;20242;-85
2024/04/11 07:22:44;;;;;;;174.17;157.03;;;;;16.90;98205.00;;;;5412845;26;20742;-86
2024/04/11 07:25:35;;;;;;;78.77;73.70;;;;;17.00;98199.00;;;;5416507;26;20229;-86
2024/04/11 07:28:26;;;;;;;71.30;66.97;;;;;17.30;98201.00;;;;5391986;26;20562;-85
2024/04/11 07:31:14;;;;;;;29.10;27.13;;;;;17.30;98205.00;;;;5401160;26;20306;-86
2024/04/11 07:34:06;;;;;;;38.20;35.83;;;;;17.20;98204.00;;;;5418636;26;20234;-86
2024/04/11 07:36:56;;;;;;;55.90;52.83;;;;;17.10;98204.00;;;;5411921;26;20290;-87
2024/04/11 07:39:53;;;;;;;183.50;167.40;;;;;17.60;98200.00;;;;5404921;26;20229;-86
2024/04/11 07:42:54;;;;;;;119.27;111.70;;;;;17.80;98208.00;;;;5404407;26;20238;-87
2024/04/11 07:45:46;;;;;;;101.83;95.73;;;;;17.10;98204.00;;;;5404121;26;20233;-86
2024/04/11 07:48:35;;;;;;;99.03;92.53;;;;;17.60;98205.00;;;;5407075;26;20234;-86
2024/04/11 07:51:27;;;;;;;110.17;103.37;;;;;18.20;98209.00;;;;5408151;26;20317;-86
2024/04/11 07:54:15;;;;;;;125.07;117.20;;;;;18.10;98215.00;;;;5391842;26;20294;-86
2024/04/11 07:57:12;;;;;;;157.83;145.07;;;;;17.80;98215.00;;;;5404107;26;20285;-86
2024/04/11 08:00:01;;;;;;;106.30;96.63;;;;;18.40;98213.00;;;;5395464;26;20231;-86
2024/04/11 08:02:56;;;;;;;13.73;9.77;;;;;18.20;98213.00;;;;5392242;26;20303;-86
2024/04/11 08:05:44;;;;;;;10.93;8.87;;;;;18.20;98216.00;;;;5401270;26;20367;-86
2024/04/11 08:08:35;;;;;;;11.53;8.23;;;;;17.70;98202.00;;;;5400341;26;20245;-86
2024/04/11 08:11:24;;;;;;;9.17;6.13;;;;;18.10;98214.00;;;;5400688;26;20289;-86
2024/04/11 08:14:17;;;;;;;9.80;5.60;;;;;18.40;98206.00;;;;5398085;26;20242;-86
2024/04/11 08:17:07;;;;;;;14.60;7.27;;;;;18.30;98201.00;;;;5398475;26;20756;-86
2024/04/11 08:19:58;;;;;;;6.23;5.60;;;;;18.80;98215.00;;;;5389909;26;20284;-86
2024/04/11 08:22:47;;;;;;;14.30;7.90;;;;;19.00;98215.00;;;;5401265;26;20230;-87
2024/04/11 08:25:38;;;;;;;10.03;7.70;;;;;19.10;98211.00;;;;5397320;26;20298;-86
2024/04/11 08:28:27;;;;;;;13.27;7.33;;;;;18.70;98204.00;;;;5399974;26;20286;-86
2024/04/11 08:31:21;;;;;;;6.43;4.47;;;;;18.90;98212.00;;;;5386119;26;20664;-86
2024/04/11 08:34:12;;;;;;;7.83;4.10;;;;;19.20;98207.00;;;;5385215;26;20281;-86
2024/04/11 08:37:03;;;;;;;9.27;4.27;;;;;19.50;98210.00;;;;5397654;26;20504;-85
2024/04/11 08:39:51;;;;;;;6.90;3.73;;;;;19.90;98208.00;;;;5405104;26;20238;-86
2024/04/11 08:42:43;;;;;;;10.87;5.17;;;;;19.80;98208.00;;;;5391526;26;20238;-86
2024/04/11 08:45:33;;;;;;;8.33;4.20;;;;;20.20;98204.00;;;;5403671;26;20301;-87
2024/04/11 08:48:26;;;;;;;7.53;4.23;;;;;20.00;98206.00;;;;5404778;26;20246;-86
2024/04/11 08:51:19;;;;;;;8.53;4.07;;;;;20.10;98214.00;;;;5400367;26;20239;-86
2024/04/11 08:54:11;;;;;;;8.50;4.17;;;;;20.70;98203.00;;;;5393103;26;20238;-85
2024/04/11 08:56:59;;;;;;;11.03;4.80;;;;;21.00;98212.00;;;;5391476;26;20663;-86
2024/04/11 08:59:50;;;;;;;11.77;6.00;;;;;20.50;98214.00;;;;5395508;26;20304;-86
2024/04/11 09:02:41;;;;;;;10.90;5.23;;;;;21.20;98211.00;;;;5412892;26;20730;-86
2024/04/11 09:05:35;;;;;;;7.87;4.43;;;;;21.20;98207.00;;;;5392674;26;20351;-87
2024/04/11 09:08:25;;;;;;;8.30;4.13;;;;;21.50;98218.00;;;;5387483;26;20354;-86
2024/04/11 09:11:16;;;;;;;5.90;2.97;;;;;21.90;98211.00;;;;5400320;26;20263;-86
2024/04/11 09:14:05;;;;;;;8.17;4.37;;;;;22.10;98214.00;;;;5394905;26;20241;-85
2024/04/11 09:17:04;;;;;;;7.57;4.33;;;;;21.80;98205.00;;;;5397681;26;20314;-86
2024/04/11 09:20:05;;;;;;;6.43;3.77;;;;;21.70;98207.00;;;;5390993;26;20311;-86
2024/04/11 09:22:59;;;;;;;5.27;3.13;;;;;21.70;98194.00;;;;5394066;26;20246;-86
2024/04/11 09:25:48;;;;;;;11.03;5.60;;;;;21.80;98195.00;;;;5406206;26;20345;-86
2024/04/11 09:28:39;;;;;;;11.33;5.33;;;;;21.70;98193.00;;;;5398541;26;20800;-86
2024/04/11 09:31:29;;;;;;;2.03;1.63;;;;;22.00;98183.00;;;;5391509;26;20708;-86
2024/04/11 09:34:26;;;;;;;6.87;3.33;;;;;22.20;98191.00;;;;5385900;26;20290;-86
2024/04/11 09:37:17;;;;;;;10.93;5.00;;;;;21.90;98188.00;;;;5399645;26;20807;-86
2024/04/11 09:40:19;;;;;;;7.37;3.53;;;;;22.70;98192.00;;;;5404720;26;20723;-86
2024/04/11 09:43:10;;;;;;;4.07;2.27;;;;;22.70;98190.00;;;;5393257;26;20680;-86
2024/04/11 09:46:06;;;;;;;7.00;3.43;;;;;23.00;98184.00;;;;5400916;26;20297;-86
2024/04/11 09:48:54;;;;;;;6.47;4.03;;;;;23.70;98188.00;;;;5399999;26;20369;-86
2024/04/11 09:51:51;;;;;;;11.40;6.40;;;;;24.00;98190.00;;;;5395703;26;20312;-86
2024/04/11 09:54:39;;;;;;;14.73;9.07;;;;;23.70;98185.00;;;;5394818;26;20226;-85
2024/04/11 09:57:34;;;;;;;13.70;11.97;;;;;23.70;98187.00;;;;5400933;26;20278;-86
2024/04/11 10:00:48;;;;;;;16.80;15.03;;;;;24.40;98184.00;;;;5385803;26;20783;-86
2024/04/11 10:03:34;;;;;;;18.37;17.07;;;;;24.10;98183.00;;;;5410421;26;20285;-86
2024/04/11 10:06:24;;;;;;;15.57;14.33;;;;;24.50;98183.00;;;;5396039;26;20276;-86
2024/04/11 10:09:17;;;;;;;23.40;21.63;;;;;25.20;98183.00;;;;5400452;26;20236;-85
2024/04/11 10:12:09;;;;;;;59.13;56.37;;;;;25.40;98178.00;;;;5397034;26;20239;-86
2024/04/11 10:15:06;;;;;;;60.73;58.07;;;;;25.70;98185.00;;;;5389594;26;20231;-86
2024/04/11 10:18:05;;;;;;;65.57;62.67;;;;;25.20;98174.00;;;;5394326;26;20235;-86
2024/04/11 10:21:02;;;;;;;68.03;65.13;;;;;25.00;98179.00;;;;5400920;26;20251;-86
2024/04/11 10:23:50;;;;;;;61.23;58.00;;;;;24.80;98180.00;;;;5400448;26;20310;-86
2024/04/11 10:26:42;;;;;;;9.03;8.13;;;;;24.80;98173.00;;;;5398568;26;20230;-86
2024/04/11 10:29:33;;;;;;;9.53;6.50;;;;;25.70;98171.00;;;;5386414;26;20235;-86
2024/04/11 10:32:35;;;;;;;7.10;4.33;;;;;26.10;98167.00;;;;5397655;26;20298;-86
2024/04/11 10:35:28;;;;;;;8.90;4.73;;;;;25.70;98157.00;;;;5393554;26;20279;-86
2024/04/11 10:38:27;;;;;;;4.50;2.67;;;;;26.10;98159.00;;;;5410443;26;20238;-86
2024/04/11 10:41:19;;;;;;;6.23;3.47;;;;;26.60;98163.00;;;;5403106;26;20618;-86
2024/04/11 10:44:11;;;;;;;6.37;3.97;;;;;26.20;98159.00;;;;5388038;26;20235;-86
2024/04/11 10:47:04;;;;;;;9.77;4.83;;;;;25.60;98153.00;;;;5402042;26;20234;-86
2024/04/11 10:49:59;;;;;;;6.93;3.53;;;;;25.10;98143.00;;;;5408210;26;20310;-86
2024/04/11 10:52:47;;;;;;;10.43;4.97;;;;;25.90;98145.00;;;;5399869;26;20230;-86
2024/04/11 10:55:46;;;;;;;8.20;3.97;;;;;24.40;98147.00;;;;5412494;26;20241;-87
2024/04/11 10:58:36;;;;;;;7.47;3.47;;;;;26.40;98139.00;;;;5381828;26;20655;-86
2024/04/11 11:01:28;;;;;;;6.93;3.37;;;;;27.30;98146.00;;;;5393303;26;20280;-86
2024/04/11 11:04:20;;;;;;;6.03;3.13;;;;;27.00;98144.00;;;;5407628;26;20237;-86
2024/04/11 11:07:13;;;;;;;10.13;4.73;;;;;26.30;98136.00;;;;5449528;21;20276;-69
2024/04/11 11:10:11;;;;;;;7.80;3.83;;;;;26.50;98145.00;;;;5468345;26;20279;-69
2024/04/11 11:13:02;;;;;;;5.70;3.07;;;;;26.40;98134.00;;;;5426782;26;20481;-70
2024/04/11 11:15:55;;;;;;;14.23;7.20;;;;;28.00;98141.00;;;;5443845;26;20233;-70
2024/04/11 11:18:46;;;;;;;13.67;7.13;;;;;26.90;98136.00;;;;5442539;26;20233;-69
2024/04/11 11:21:34;;;;;;;9.37;8.13;;;;;27.50;98131.00;;;;5434360;26;20293;-70
2024/04/11 11:24:34;;;;;;;10.07;7.20;;;;;28.10;98133.00;;;;5444960;26;20273;-70
2024/04/11 11:27:28;;;;;;;28.90;26.97;;;;;28.80;98124.00;;;;5437040;26;20231;-70
2024/04/11 11:30:19;;;;;;;33.40;31.70;;;;;28.90;98129.00;;;;5441324;26;20232;-70
2024/04/11 11:33:07;;;;;;;51.00;48.73;;;;;29.30;98122.00;;;;5433907;26;20263;-70
2024/04/11 11:36:00;;;;;;;43.17;40.87;;;;;28.80;98122.00;;;;5445124;26;20230;-71
2024/04/11 11:38:49;;;;;;;13.80;11.93;;;;;29.00;98123.00;;;;5427771;26;20768;-71
2024/04/11 11:41:47;;;;;;;17.57;15.87;;;;;27.60;98114.00;;;;5422871;26;20704;-70
2024/04/11 11:45:05;;;;;;;13.27;12.20;;;;;28.70;98111.00;;;;5433451;26;20234;-70
2024/04/11 11:47:57;;;;;;;7.43;6.73;;;;;29.40;98116.00;;;;5445958;26;20311;-71
2024/04/11 11:50:52;;;;;;;9.07;4.63;;;;;29.30;98112.00;;;;5436630;26;20333;-71
2024/04/11 11:53:45;;;;;;;4.77;2.80;;;;;29.80;98109.00;;;;5446124;26;20295;-71
2024/04/11 11:56:39;;;;;;;4.90;3.90;;;;;30.00;98101.00;;;;5436648;26;21081;-71
2024/04/11 11:59:33;;;;;;;12.07;11.00;;;;;29.20;98095.00;;;;5432483;26;20231;-71
2024/04/11 12:02:23;;;;;;;19.40;18.27;;;;;29.80;98102.00;;;;5427177;26;20267;-70
2024/04/11 12:05:14;;;;;;;9.03;8.23;;;;;30.50;98100.00;;;;5449820;26;20225;-71
2024/04/11 12:08:06;;;;;;;13.20;12.17;;;;;30.00;98095.00;;;;5443746;26;20261;-69
2024/04/11 12:14:05;;;;;;;42.70;40.60;;;;;31.10;98087.00;;;;5425926;26;20242;-69
2024/04/11 12:16:56;;;;;;;91.50;87.63;;;;;31.80;98093.00;;;;5442368;26;20236;-69
2024/04/11 12:19:47;;;;;;;155.98;149.60;;;;;31.10;98094.00;;;;5441945;26;20633;-71
2024/04/11 12:22:35;;;;;;;231.82;223.13;;;;;30.50;98088.00;;;;5439949;26;20282;-68
2024/04/11 12:25:26;;;;;;;198.02;190.85;;;;;31.30;98093.00;;;;5432273;26;20234;-71
2024/04/11 12:28:16;;;;;;;109.25;104.82;;;;;29.00;98079.00;;;;5442378;26;20228;-70
2024/04/11 12:31:09;;;;;;;189.80;182.95;;;;;30.80;98074.00;;;;5443932;26;20237;-70
2024/04/11 12:34:00;;;;;;;157.40;151.55;;;;;28.30;98062.00;;;;5441893;26;20235;-71
2024/04/11 12:36:56;;;;;;;112.50;107.78;;;;;30.90;98079.00;;;;5444478;26;20285;-71
2024/04/11 12:39:45;;;;;;;140.35;134.05;;;;;31.10;98071.00;;;;5431231;26;20234;-70
2024/04/11 12:42:38;;;;;;;196.65;189.30;;;;;31.70;98079.00;;;;5433293;26;20290;-70
2024/04/11 12:45:31;;;;;;;195.27;187.82;;;;;31.30;98065.00;;;;5427544;26;20297;-71
2024/04/11 12:48:23;;;;;;;175.25;168.77;;;;;30.80;98068.00;;;;5437609;26;20664;-71
2024/04/11 12:51:15;;;;;;;155.18;149.18;;;;;31.80;98063.00;;;;5446107;26;20347;-71
2024/04/11 12:54:06;;;;;;;227.98;219.57;;;;;31.50;98068.00;;;;5427372;26;20235;-70
2024/04/11 12:57:04;;;;;;;246.20;237.13;;;;;32.00;98062.00;;;;5437938;26;20774;-70
2024/04/11 12:59:56;;;;;;;299.65;287.88;;;;;32.70;98057.00;;;;5439663;26;20346;-70
2024/04/11 13:02:48;;;;;;;629.20;593.10;;;;;31.80;98052.00;;;;5438310;26;20284;-70
2024/04/11 13:05:44;;;;;;;578.63;550.88;;;;;31.20;98046.00;;;;5443368;26;20357;-69
2024/04/11 13:08:40;;;;;;;519.08;496.63;;;;;30.50;98059.00;;;;5434528;26;20428;-68
2024/04/11 13:11:37;;;;;;;415.08;398.83;;;;;28.70;98049.00;;;;5437423;26;20286;-70
2024/04/11 13:14:28;;;;;;;227.85;219.45;;;;;27.90;98044.00;;;;5422209;26;20284;-67
2024/04/11 13:17:17;;;;;;;83.20;79.72;;;;;29.30;98048.00;;;;5439914;26;20628;-68
2024/04/11 13:20:15;;;;;;;70.57;67.72;;;;;30.10;98044.00;;;;5440990;26;20774;-69
2024/04/11 13:23:09;;;;;;;116.15;111.55;;;;;32.20;98045.00;;;;5439577;26;20314;-68
2024/04/11 13:26:07;;;;;;;201.48;194.25;;;;;33.10;98038.00;;;;5440737;26;20281;-67
2024/04/11 13:28:58;;;;;;;430.30;413.60;;;;;32.10;98043.00;;;;5430735;26;20372;-69
2024/04/11 13:31:51;;;;;;;644.85;611.47;;;;;30.60;98040.00;;;;5428339;26;20292;-70
2024/04/11 13:34:40;;;;;;;598.30;569.67;;;;;30.70;98036.00;;;;5442308;26;20233;-69
2024/04/11 13:37:37;;;;;;;716.75;673.85;;;;;30.50;98040.00;;;;5433836;26;20289;-68
2024/04/11 13:43:37;;;;;;;609.83;580.97;;;;;32.40;98051.00;;;;5445301;26;20628;-72
2024/04/11 13:46:34;;;;;;;714.30;675.60;;;;;32.60;98051.00;;;;5431755;26;20274;-72
2024/04/11 13:49:30;;;;;;;721.13;678.45;;;;;33.10;98055.00;;;;5424705;26;20304;-74
2024/04/11 13:52:26;;;;;;;662.42;629.47;;;;;30.60;98060.00;;;;5442627;26;20249;-73
2024/04/11 13:55:18;;;;;;;661.67;628.83;;;;;31.60;98060.00;;;;5441450;26;20228;-75
2024/04/11 13:58:09;;;;;;;665.20;631.75;;;;;32.90;98056.00;;;;5437287;26;20311;-73
2024/04/11 14:01:02;;;;;;;753.10;707.88;;;;;33.40;98062.00;;;;5429394;26;20233;-72